createdAt,value
2019-06-01T00:00:39.989Z,10.13
2019-06-01T00:03:08.661Z,9.87
2019-06-01T00:05:35.505Z,10.17
2019-06-01T00:08:03.690Z,11.23
2019-06-01T00:10:30.467Z,10.60
2019-06-01T00:12:57.455Z,11.13
2019-06-01T00:15:24.755Z,11.27
2019-06-01T00:17:52.188Z,10.30
2019-06-01T00:20:22.451Z,10.27
2019-06-01T00:22:49.740Z,12.00
2019-06-01T00:25:16.419Z,12.17
2019-06-01T00:27:44.992Z,11.17
2019-06-01T00:30:26.129Z,9.97
2019-06-01T00:32:40.970Z,10.60
2019-06-01T00:35:07.748Z,11.50
2019-06-01T00:37:34.823Z,11.60
2019-06-01T00:40:02.090Z,11.77
2019-06-01T00:42:29.535Z,10.10
2019-06-01T00:44:56.795Z,12.03
2019-06-01T00:47:24.839Z,10.63
2019-06-01T00:49:53.117Z,10.87
2019-06-01T00:52:20.775Z,10.30
2019-06-01T00:54:47.424Z,11.67
2019-06-01T00:57:15.388Z,11.40
2019-06-01T00:59:42.207Z,10.93
2019-06-01T01:02:12.259Z,10.20
2019-06-01T01:04:39.596Z,10.30
2019-06-01T01:07:06.457Z,10.73
2019-06-01T01:09:33.257Z,11.30
2019-06-01T01:12:00.162Z,10.85
2019-06-01T01:14:26.888Z,11.00
2019-06-01T01:16:54.162Z,9.80
2019-06-01T01:19:20.991Z,10.17
2019-06-01T01:21:50.267Z,12.40
2019-06-01T01:24:16.943Z,9.90
2019-06-01T01:26:43.915Z,10.53
2019-06-01T01:29:10.696Z,11.77
2019-06-01T01:31:39.275Z,11.10
2019-06-01T01:34:07.100Z,10.40
2019-06-01T01:36:33.767Z,10.60
2019-06-01T01:39:00.395Z,10.83
2019-06-01T01:41:28.856Z,10.50
2019-06-01T01:43:56.572Z,12.30
2019-06-01T01:46:24.544Z,11.33
2019-06-01T01:48:52.287Z,13.30
2019-06-01T01:51:18.931Z,12.43
2019-06-01T01:53:45.587Z,12.93
2019-06-01T01:56:14.732Z,12.90
2019-06-01T01:58:41.384Z,11.67
2019-06-01T02:01:21.748Z,13.27
2019-06-01T02:03:37.708Z,12.40
2019-06-01T02:06:04.695Z,13.33
2019-06-01T02:08:31.340Z,12.50
2019-06-01T02:10:59.511Z,13.77
2019-06-01T02:13:27.460Z,14.60
2019-06-01T02:15:56.195Z,14.67
2019-06-01T02:18:23.072Z,14.33
2019-06-01T02:20:50.048Z,14.20
2019-06-01T02:23:16.793Z,16.67
2019-06-01T02:25:44.423Z,15.80
2019-06-01T02:28:11.047Z,16.00
2019-06-01T02:30:38.337Z,16.40
2019-06-01T02:33:05.362Z,16.40
2019-06-01T02:35:32.399Z,15.83
2019-06-01T02:38:02.806Z,17.70
2019-06-01T02:40:29.902Z,17.17
2019-06-01T02:42:58.928Z,15.33
2019-06-01T02:45:26.331Z,17.50
2019-06-01T02:47:53.289Z,16.70
2019-06-01T02:50:20.336Z,16.93
2019-06-01T02:52:47.584Z,17.20
2019-06-01T02:55:15.710Z,16.10
2019-06-01T02:57:43.920Z,16.97
2019-06-01T03:00:10.644Z,15.23
2019-06-01T03:02:38.122Z,16.03
2019-06-01T03:05:05.541Z,15.87
2019-06-01T03:07:32.447Z,16.13
2019-06-01T03:10:00.853Z,15.93
2019-06-01T03:12:30.907Z,15.00
2019-06-01T03:15:00.377Z,16.67
2019-06-01T03:17:29.219Z,17.53
2019-06-01T03:19:57.890Z,16.67
2019-06-01T03:22:26.910Z,16.83
2019-06-01T03:24:55.339Z,17.73
2019-06-01T03:27:21.987Z,17.90
2019-06-01T03:29:52.431Z,16.27
2019-06-01T03:32:35.319Z,17.87
2019-06-01T03:34:49.386Z,18.00
2019-06-01T03:37:15.999Z,17.80
2019-06-01T03:39:43.742Z,18.90
2019-06-01T03:42:11.734Z,17.63
2019-06-01T03:44:38.532Z,17.93
2019-06-01T03:47:05.640Z,17.13
2019-06-01T03:49:32.556Z,16.60
2019-06-01T03:52:00.592Z,17.97
2019-06-01T03:54:27.433Z,18.50
2019-06-01T03:56:54.299Z,18.90
2019-06-01T03:59:22.639Z,17.80
2019-06-01T04:01:51.972Z,17.17
2019-06-01T04:04:18.615Z,17.60
2019-06-01T04:06:45.275Z,18.23
2019-06-01T04:09:14.819Z,16.30
2019-06-01T04:11:41.469Z,17.97
2019-06-01T04:14:08.241Z,16.13
2019-06-01T04:16:34.982Z,16.07
2019-06-01T04:19:03.787Z,17.10
2019-06-01T04:21:31.096Z,16.20
2019-06-01T04:23:57.820Z,16.10
2019-06-01T04:26:26.959Z,17.83
2019-06-01T04:28:54.107Z,18.07
2019-06-01T04:31:22.852Z,16.13
2019-06-01T04:33:50.630Z,15.83
2019-06-01T04:36:17.664Z,16.70
2019-06-01T04:38:44.633Z,16.80
2019-06-01T04:41:12.089Z,15.77
2019-06-01T04:43:39.948Z,16.00
2019-06-01T04:46:06.568Z,18.17
2019-06-01T04:48:33.932Z,14.93
2019-06-01T04:51:00.911Z,17.43
2019-06-01T04:53:32.125Z,16.60
2019-06-01T04:56:00.207Z,18.37
2019-06-01T04:58:28.398Z,17.03
2019-06-01T05:00:55.811Z,17.00
2019-06-01T05:03:22.760Z,15.47
2019-06-01T05:05:49.416Z,16.67
2019-06-01T05:08:16.358Z,18.37
2019-06-01T05:10:43.282Z,16.80
2019-06-01T05:13:10.035Z,16.10
2019-06-01T05:15:36.681Z,15.70
2019-06-01T05:18:05.839Z,14.80
2019-06-01T05:20:32.783Z,14.37
2019-06-01T05:22:59.412Z,15.23
2019-06-01T05:25:26.035Z,15.30
2019-06-01T05:27:52.866Z,16.00
2019-06-01T05:30:19.477Z,17.00
2019-06-01T05:32:46.214Z,15.77
2019-06-01T05:35:15.901Z,17.70
2019-06-01T05:37:43.081Z,17.33
2019-06-01T05:40:10.479Z,16.23
2019-06-01T05:42:37.480Z,16.23
2019-06-01T05:45:04.892Z,17.27
2019-06-01T05:47:31.959Z,16.87
2019-06-01T05:49:58.614Z,15.50
2019-06-01T05:52:26.167Z,16.20
2019-06-01T05:54:52.811Z,16.13
2019-06-01T05:57:21.215Z,15.70
2019-06-01T05:59:48.333Z,16.30
2019-06-01T06:02:15.891Z,19.37
2019-06-01T06:04:43.143Z,16.13
2019-06-01T06:07:10.664Z,15.30
2019-06-01T06:09:44.088Z,15.27
2019-06-01T06:12:11.235Z,15.13
2019-06-01T06:14:37.975Z,15.10
2019-06-01T06:17:04.951Z,15.67
2019-06-01T06:19:32.032Z,16.30
2019-06-01T06:21:58.691Z,15.87
2019-06-01T06:24:25.340Z,16.43
2019-06-01T06:26:52.237Z,15.07
2019-06-01T06:29:20.959Z,14.90
2019-06-01T06:31:47.832Z,13.47
2019-06-01T06:34:15.278Z,14.30
2019-06-01T06:36:42.034Z,14.43
2019-06-01T06:39:08.754Z,13.50
2019-06-01T06:41:36.966Z,14.10
2019-06-01T06:44:04.482Z,14.27
2019-06-01T06:46:31.380Z,14.57
2019-06-01T06:48:58.058Z,14.17
2019-06-01T06:51:25.505Z,12.90
2019-06-01T06:53:52.383Z,13.87
2019-06-01T06:56:21.999Z,12.80
2019-06-01T06:58:49.393Z,13.57
2019-06-01T07:01:16.962Z,14.23
2019-06-01T07:03:44.041Z,13.33
2019-06-01T07:06:11.406Z,13.00
2019-06-01T07:08:39.465Z,12.83
2019-06-01T07:11:06.833Z,12.30
2019-06-01T07:13:34.593Z,12.60
2019-06-01T07:16:03.975Z,14.03
2019-06-01T07:18:31.930Z,14.57
2019-06-01T07:21:00.353Z,13.50
2019-06-01T07:23:27.963Z,14.17
2019-06-01T07:25:55.003Z,14.47
2019-06-01T07:28:22.409Z,13.57
2019-06-01T07:30:50.688Z,13.40
2019-06-01T07:33:17.728Z,13.80
2019-06-01T07:35:44.704Z,13.40
2019-06-01T07:38:11.643Z,11.60
2019-06-01T07:40:39.995Z,13.80
2019-06-01T07:43:08.059Z,12.83
2019-06-01T07:45:35.728Z,12.47
2019-06-01T07:48:03.325Z,12.10
2019-06-01T07:50:32.254Z,8.80
2019-06-01T07:52:59.427Z,8.63
2019-06-01T07:55:27.577Z,9.57
2019-06-01T07:57:56.439Z,10.40
2019-06-01T08:00:24.540Z,8.70
2019-06-01T08:02:52.328Z,8.57
2019-06-01T08:05:23.299Z,8.13
2019-06-01T08:07:50.620Z,7.90
2019-06-01T08:10:18.267Z,7.50
2019-06-01T08:12:45.635Z,6.70
2019-06-01T08:15:12.889Z,7.47
2019-06-01T08:17:41.674Z,7.63
2019-06-01T08:20:08.543Z,7.37
2019-06-01T08:22:38.672Z,8.07
2019-06-01T08:25:06.099Z,6.30
2019-06-01T08:27:34.735Z,7.50
2019-06-01T08:30:02.046Z,5.93
2019-06-01T08:32:30.728Z,5.60
2019-06-01T08:35:08.499Z,6.73
2019-06-01T08:37:29.300Z,6.50
2019-06-01T08:39:59.166Z,6.90
2019-06-01T08:42:25.352Z,5.93
2019-06-01T08:44:52.507Z,5.10
2019-06-01T08:47:19.140Z,4.87
2019-06-01T08:49:45.911Z,5.87
2019-06-01T08:52:14.557Z,5.40
2019-06-01T08:54:41.191Z,5.43
2019-06-01T08:57:08.002Z,5.33
2019-06-01T08:59:36.943Z,5.12
2019-06-01T09:02:03.916Z,5.53
2019-06-01T09:04:32.801Z,4.90
2019-06-01T09:07:00.341Z,4.60
2019-06-01T09:09:28.880Z,5.90
2019-06-01T09:11:56.080Z,5.57
2019-06-01T09:14:23.316Z,5.20
2019-06-01T09:16:50.475Z,6.13
2019-06-01T09:19:17.318Z,6.30
2019-06-01T09:21:44.343Z,6.00
2019-06-01T09:24:10.978Z,5.50
2019-06-01T09:26:37.927Z,5.60
2019-06-01T09:29:04.991Z,5.90
2019-06-01T09:31:34.277Z,6.60
2019-06-01T09:34:01.535Z,7.13
2019-06-01T09:36:28.441Z,5.77
2019-06-01T09:38:55.731Z,6.77
2019-06-01T09:41:22.367Z,7.00
2019-06-01T09:43:49.082Z,6.50
2019-06-01T09:46:17.140Z,5.97
2019-06-01T09:48:44.251Z,6.90
2019-06-01T09:51:11.207Z,6.10
2019-06-01T09:53:38.190Z,8.00
2019-06-01T09:56:04.888Z,4.63
2019-06-01T09:58:32.252Z,6.27
2019-06-01T10:01:00.088Z,6.87
2019-06-01T10:03:28.314Z,6.00
2019-06-01T10:06:01.801Z,5.90
2019-06-01T10:08:24.037Z,5.43
2019-06-01T10:10:52.674Z,5.73
2019-06-01T10:13:19.312Z,5.30
2019-06-01T10:15:47.035Z,7.00
2019-06-01T10:18:13.690Z,6.30
2019-06-01T10:20:41.388Z,4.90
2019-06-01T10:23:08.929Z,4.87
2019-06-01T10:25:37.007Z,5.27
2019-06-01T10:28:04.020Z,6.10
2019-06-01T10:30:32.040Z,5.60
2019-06-01T10:32:58.655Z,5.57
2019-06-01T10:35:25.291Z,6.03
2019-06-01T10:37:52.336Z,6.30
2019-06-01T10:40:19.239Z,6.03
2019-06-01T10:42:47.663Z,6.43
2019-06-01T10:45:15.934Z,5.60
2019-06-01T10:47:42.573Z,6.50
2019-06-01T10:50:10.750Z,6.87
2019-06-01T10:52:38.563Z,5.53
2019-06-01T10:55:05.751Z,5.97
2019-06-01T10:57:32.403Z,7.40
2019-06-01T11:00:01.403Z,7.03
2019-06-01T11:02:28.143Z,6.97
2019-06-01T11:04:55.804Z,7.70
2019-06-01T11:07:23.051Z,7.43
2019-06-01T11:09:49.944Z,7.90
2019-06-01T11:12:16.676Z,7.00
2019-06-01T11:14:44.384Z,8.03
2019-06-01T11:17:14.903Z,9.43
2019-06-01T11:19:42.125Z,10.43
2019-06-01T11:22:11.091Z,11.77
2019-06-01T11:24:37.767Z,11.00
2019-06-01T11:27:06.289Z,9.10
2019-06-01T11:29:40.011Z,9.43
2019-06-01T11:32:02.597Z,8.80
2019-06-01T11:34:33.918Z,8.93
2019-06-01T11:37:05.442Z,8.30
2019-06-01T11:39:29.847Z,8.37
2019-06-01T11:41:56.468Z,10.90
2019-06-01T11:44:28.011Z,8.47
2019-06-01T11:46:54.966Z,9.40
2019-06-01T11:49:24.146Z,8.53
2019-06-01T11:51:52.279Z,9.90
2019-06-01T11:54:19.596Z,9.20
2019-06-01T11:56:48.981Z,8.68
2019-06-01T11:59:17.250Z,9.30
2019-06-01T12:01:45.993Z,9.80
2019-06-01T12:04:14.419Z,8.67
2019-06-01T12:06:42.033Z,9.03
2019-06-01T12:09:11.901Z,8.13
2019-06-01T12:11:40.040Z,9.27
2019-06-01T12:14:06.913Z,11.10
2019-06-01T12:16:33.572Z,9.07
2019-06-01T12:19:00.280Z,10.37
2019-06-01T12:21:26.960Z,10.20
2019-06-01T12:23:54.092Z,10.80
2019-06-01T12:26:21.233Z,11.07
2019-06-01T12:28:48.040Z,10.90
2019-06-01T12:31:15.349Z,11.10
2019-06-01T12:33:42.080Z,10.33
2019-06-01T12:36:09.920Z,10.80
2019-06-01T12:38:52.230Z,10.17
2019-06-01T12:41:21.578Z,9.33
2019-06-01T12:44:07.751Z,9.43
2019-06-01T12:46:34.652Z,9.97
2019-06-01T12:49:03.467Z,11.23
2019-06-01T12:51:30.920Z,9.63
2019-06-01T12:53:57.551Z,10.40
2019-06-01T12:56:24.282Z,11.30
2019-06-01T12:58:52.252Z,10.27
2019-06-01T13:01:19.047Z,10.43
2019-06-01T13:03:45.681Z,12.97
2019-06-01T13:06:12.371Z,10.40
2019-06-01T13:08:38.993Z,10.97
2019-06-01T13:11:05.959Z,8.50
2019-06-01T13:13:38.739Z,8.90
2019-06-01T13:16:06.100Z,10.13
2019-06-01T13:18:33.039Z,9.83
2019-06-01T13:21:00.967Z,11.23
2019-06-01T13:23:27.588Z,9.50
2019-06-01T13:25:54.302Z,9.77
2019-06-01T13:28:28.968Z,9.73
2019-06-01T13:30:51.126Z,10.40
2019-06-01T13:33:18.506Z,10.30
2019-06-01T13:35:46.646Z,8.73
2019-06-01T13:38:14.757Z,8.30
2019-06-01T13:40:42.799Z,8.67
2019-06-01T13:43:09.963Z,7.00
2019-06-01T13:45:37.689Z,7.57
2019-06-01T13:48:04.594Z,6.33
2019-06-01T13:50:31.360Z,6.23
2019-06-01T13:52:59.333Z,6.37
2019-06-01T13:55:25.967Z,5.77
2019-06-01T13:57:52.637Z,6.83
2019-06-01T14:00:29.800Z,6.30
2019-06-01T14:02:54.021Z,5.90
2019-06-01T14:05:18.836Z,6.63
2019-06-01T14:07:45.863Z,6.90
2019-06-01T14:10:13.733Z,4.63
2019-06-01T14:12:41.039Z,5.27
2019-06-01T14:15:07.802Z,5.43
2019-06-01T14:17:34.579Z,5.47
2019-06-01T14:20:03.276Z,5.30
2019-06-01T14:22:30.300Z,4.20
2019-06-01T14:25:11.587Z,5.27
2019-06-01T14:27:26.635Z,4.40
2019-06-01T14:29:54.446Z,4.30
2019-06-01T14:32:22.967Z,4.43
2019-06-01T14:34:51.008Z,5.57
2019-06-01T14:37:18.175Z,5.00
2019-06-01T14:39:44.832Z,4.50
2019-06-01T14:42:11.923Z,4.17
2019-06-01T14:44:39.663Z,3.90
2019-06-01T14:47:06.403Z,3.63
2019-06-01T14:49:34.571Z,4.70
2019-06-01T14:52:01.463Z,3.83
2019-06-01T14:54:29.283Z,4.27
2019-06-01T14:56:57.952Z,4.37
2019-06-01T14:59:25.831Z,3.50
2019-06-01T15:01:52.539Z,4.30
2019-06-01T15:04:19.205Z,3.07
2019-06-01T15:06:48.237Z,4.47
2019-06-01T15:09:18.920Z,3.47
2019-06-01T15:11:44.663Z,4.10
2019-06-01T15:14:12.311Z,3.40
2019-06-01T15:16:39.047Z,3.90
2019-06-01T15:19:06.144Z,4.00
2019-06-01T15:21:34.380Z,3.47
2019-06-01T15:24:02.756Z,2.90
2019-06-01T15:26:31.135Z,3.13
2019-06-01T15:28:58.899Z,3.67
2019-06-01T15:31:26.770Z,3.43
2019-06-01T15:33:53.770Z,3.30
2019-06-01T15:36:21.263Z,3.17
2019-06-01T15:38:48.904Z,3.20
2019-06-01T15:41:16.234Z,2.60
2019-06-01T15:43:47.348Z,2.90
2019-06-01T15:46:15.091Z,2.57
2019-06-01T15:48:41.870Z,2.97
2019-06-01T15:51:08.623Z,1.93
2019-06-01T15:53:35.359Z,2.23
2019-06-01T15:56:03.522Z,1.80
2019-06-01T15:58:30.431Z,1.87
2019-06-01T16:00:57.102Z,2.40
2019-06-01T16:03:24.981Z,1.90
2019-06-01T16:05:54.920Z,1.70
2019-06-01T16:08:23.556Z,1.70
2019-06-01T16:10:50.554Z,1.73
2019-06-01T16:13:18.491Z,1.70
2019-06-01T16:15:45.127Z,2.03
2019-06-01T16:18:11.812Z,1.70
2019-06-01T16:20:38.991Z,1.70
2019-06-01T16:23:06.427Z,1.50
2019-06-01T16:25:33.092Z,1.60
2019-06-01T16:28:00.893Z,1.73
2019-06-01T16:30:27.668Z,1.50
2019-06-01T16:32:54.523Z,1.53
2019-06-01T16:35:22.364Z,1.90
2019-06-01T16:37:49.119Z,1.53
2019-06-01T16:40:17.324Z,2.40
2019-06-01T16:42:44.379Z,2.53
2019-06-01T16:45:11.712Z,2.03
2019-06-01T16:47:40.845Z,2.73
2019-06-01T16:50:07.955Z,2.57
2019-06-01T16:52:35.898Z,2.70
2019-06-01T16:55:02.815Z,2.43
2019-06-01T16:57:29.976Z,3.10
2019-06-01T16:59:58.160Z,2.47
2019-06-01T17:02:26.342Z,2.33
2019-06-01T17:04:53.089Z,2.63
2019-06-01T17:07:19.711Z,2.43
2019-06-01T17:09:47.083Z,2.17
2019-06-01T17:12:18.123Z,2.27
2019-06-01T17:14:45.081Z,2.47
2019-06-01T17:17:12.030Z,2.30
2019-06-01T17:19:39.412Z,3.00
2019-06-01T17:22:07.951Z,2.60
2019-06-01T17:24:35.053Z,2.87
2019-06-01T17:27:02.166Z,2.53
2019-06-01T17:29:30.742Z,2.53
2019-06-01T17:32:13.453Z,3.83
2019-06-01T17:34:27.184Z,2.97
2019-06-01T17:36:54.331Z,2.33
2019-06-01T17:39:21.688Z,2.80
2019-06-01T17:41:48.327Z,2.93
2019-06-01T17:44:15.619Z,3.70
2019-06-01T17:46:53.150Z,2.47
2019-06-01T17:49:12.414Z,2.67
2019-06-01T17:51:39.996Z,4.57
2019-06-01T17:54:11.865Z,1.97
2019-06-01T17:56:40.026Z,2.03
2019-06-01T17:59:09.439Z,2.00
2019-06-01T18:01:37.211Z,2.53
2019-06-01T18:04:04.048Z,3.07
2019-06-01T18:06:30.979Z,1.97
2019-06-01T18:08:57.975Z,2.40
2019-06-01T18:11:25.179Z,1.80
2019-06-01T18:13:52.236Z,3.13
2019-06-01T18:16:20.513Z,2.30
2019-06-01T18:18:49.395Z,2.00
2019-06-01T18:21:16.439Z,1.70
2019-06-01T18:23:43.454Z,1.90
2019-06-01T18:26:11.007Z,1.40
2019-06-01T18:28:38.508Z,1.87
2019-06-01T18:31:06.774Z,1.80
2019-06-01T18:33:34.079Z,1.50
2019-06-01T18:36:00.819Z,1.37
2019-06-01T18:38:27.468Z,2.30
2019-06-01T18:41:08.601Z,1.87
2019-06-01T18:43:25.829Z,2.00
2019-06-01T18:45:53.260Z,2.57
2019-06-01T18:48:20.576Z,2.10
2019-06-01T18:50:47.563Z,1.77
2019-06-01T18:53:14.262Z,1.87
2019-06-01T18:55:41.077Z,1.97
2019-06-01T18:58:08.345Z,2.50
2019-06-01T19:00:39.173Z,2.60
2019-06-01T19:03:06.814Z,2.40
2019-06-01T19:05:35.024Z,2.00
2019-06-01T19:08:02.845Z,2.30
2019-06-01T19:10:30.284Z,3.23
2019-06-01T19:12:59.295Z,2.80
2019-06-01T19:15:28.928Z,2.40
2019-06-01T19:18:01.724Z,2.50
2019-06-01T19:20:28.347Z,2.00
2019-06-01T19:22:55.304Z,1.73
2019-06-01T19:25:22.913Z,2.30
2019-06-01T19:27:49.551Z,3.30
2019-06-01T19:30:22.333Z,2.53
2019-06-01T19:32:52.453Z,2.90
2019-06-01T19:35:19.395Z,2.33
2019-06-01T19:37:46.144Z,2.77
2019-06-01T19:40:15.788Z,2.93
2019-06-01T19:42:43.227Z,2.20
2019-06-01T19:45:27.827Z,1.80
2019-06-01T19:47:44.872Z,2.50
2019-06-01T19:50:12.627Z,2.70
2019-06-01T19:52:40.338Z,2.50
2019-06-01T19:55:08.967Z,2.80
2019-06-01T19:57:35.810Z,2.13
2019-06-01T20:00:03.364Z,2.33
2019-06-01T20:02:34.066Z,2.50
2019-06-01T20:05:01.351Z,2.80
2019-06-01T20:07:28.658Z,2.30
2019-06-01T20:09:57.137Z,2.60
2019-06-01T20:12:23.799Z,3.57
2019-06-01T20:14:50.757Z,3.60
2019-06-01T20:17:17.822Z,2.50
2019-06-01T20:19:46.750Z,3.20
2019-06-01T20:22:14.935Z,2.60
2019-06-01T20:24:42.246Z,2.90
2019-06-01T20:27:11.278Z,2.60
2019-06-01T20:29:38.159Z,3.60
2019-06-01T20:32:05.964Z,3.73
2019-06-01T20:34:32.699Z,4.00
2019-06-01T20:37:00.160Z,3.53
2019-06-01T20:39:27.197Z,3.67
2019-06-01T20:41:55.678Z,3.73
2019-06-01T20:44:24.781Z,3.40
2019-06-01T20:46:51.494Z,3.80
2019-06-01T20:49:20.721Z,3.13
2019-06-01T20:51:47.951Z,3.63
2019-06-01T20:54:15.000Z,3.50
2019-06-01T20:56:42.363Z,3.03
2019-06-01T20:59:08.999Z,4.63
2019-06-01T21:01:35.944Z,3.40
2019-06-01T21:04:02.881Z,3.50
2019-06-01T21:06:30.672Z,3.07
2019-06-01T21:08:57.387Z,4.37
2019-06-01T21:11:25.160Z,3.70
2019-06-01T21:13:52.615Z,3.40
2019-06-01T21:16:20.696Z,4.00
2019-06-01T21:18:50.404Z,4.53
2019-06-01T21:21:18.287Z,4.27
2019-06-01T21:23:45.307Z,3.97
2019-06-01T21:26:12.063Z,4.33
2019-06-01T21:28:40.468Z,3.57
2019-06-01T21:31:07.495Z,4.40
2019-06-01T21:33:34.408Z,4.27
2019-06-01T21:36:01.154Z,4.00
2019-06-01T21:38:28.135Z,3.93
2019-06-01T21:40:55.461Z,5.47
2019-06-01T21:43:29.733Z,4.50
2019-06-01T21:45:50.979Z,4.53
2019-06-01T21:48:17.604Z,4.60
2019-06-01T21:50:44.231Z,4.53
2019-06-01T21:53:10.848Z,4.70
2019-06-01T21:55:37.501Z,4.83
2019-06-01T21:58:05.480Z,5.50
2019-06-01T22:00:36.851Z,4.33
2019-06-01T22:03:04.835Z,6.30
2019-06-01T22:05:32.281Z,4.80
2019-06-01T22:07:58.888Z,4.30
2019-06-01T22:10:27.635Z,4.27
2019-06-01T22:12:54.523Z,4.17
2019-06-01T22:15:21.747Z,4.27
2019-06-01T22:17:48.360Z,5.07
2019-06-01T22:20:15.383Z,6.20
2019-06-01T22:22:42.631Z,5.20
2019-06-01T22:25:10.731Z,5.00
2019-06-01T22:27:38.285Z,6.00
2019-06-01T22:30:05.823Z,5.93
2019-06-01T22:32:33.182Z,5.53
2019-06-01T22:35:04.747Z,5.33
2019-06-01T22:37:32.327Z,5.10
2019-06-01T22:40:00.223Z,5.30
2019-06-01T22:42:26.860Z,5.73
2019-06-01T22:44:53.750Z,5.43
2019-06-01T22:47:20.515Z,6.70
2019-06-01T22:49:48.499Z,5.43
2019-06-01T22:52:15.799Z,5.47
2019-06-01T22:54:44.083Z,4.50
2019-06-01T22:57:11.029Z,6.00
2019-06-01T22:59:38.887Z,5.10
2019-06-01T23:02:06.070Z,5.93
2019-06-01T23:04:33.607Z,4.60
2019-06-01T23:07:00.315Z,5.53
2019-06-01T23:09:27.587Z,5.27
2019-06-01T23:11:54.220Z,6.20
2019-06-01T23:14:21.355Z,5.57
2019-06-01T23:16:48.738Z,5.60
2019-06-01T23:19:15.980Z,5.93
2019-06-01T23:21:44.162Z,5.20
2019-06-01T23:24:11.217Z,6.47
2019-06-01T23:26:38.275Z,5.47
2019-06-01T23:29:05.608Z,5.50
2019-06-01T23:31:32.860Z,5.30
2019-06-01T23:33:59.471Z,5.47
2019-06-01T23:36:26.481Z,6.47
2019-06-01T23:38:53.698Z,5.93
2019-06-01T23:41:20.698Z,5.53
2019-06-01T23:43:49.527Z,5.87
2019-06-01T23:46:16.207Z,5.30
2019-06-01T23:48:42.955Z,5.57
2019-06-01T23:51:11.408Z,5.33
2019-06-01T23:53:38.135Z,5.30
2019-06-01T23:56:06.248Z,5.40
2019-06-01T23:58:34.630Z,6.10
